Terminal Aerodrome Forecast
Issued by NWS

Home | Current Version | Previous Version | Text Only | Print | Product List | Glossary On
Versions: 1 2 3 4 5 6 7 8 9 10 11 12 13 14 15 16 17 18 19 20 21 22 23 24 25 26 27 28
000
FTUS44 KFWD 170524
TAFGKY
TAF
KGKY 170524Z 1706/1806 18010KT P6SM FEW100 BKN250
     FM171100 20013KT P6SM VCTS SCT035CB OVC250
      TEMPO 1712/1714 6SM -TSRA BKN025CB
     FM171500 22009KT P6SM VCSH SCT060 BKN090
     FM171600 20009KT P6SM FEW015 SCT060=

USA.gov is the U.S. government's official web portal to all federal, state and local government web resources and services.